sensor_id;sensor_type;location;lat;lon;timestamp;P1;durP1;ratioP1;P2;durP2;ratioP2
41259;SDS011;26993;48.958;9.330;2022-12-07T00:00:24;14.37;;;9.37;;
41259;SDS011;26993;48.958;9.330;2022-12-07T00:03:10;17.00;;;9.93;;
41259;SDS011;26993;48.958;9.330;2022-12-07T00:05:57;13.33;;;9.13;;
41259;SDS011;26993;48.958;9.330;2022-12-07T00:08:44;13.17;;;9.20;;
41259;SDS011;26993;48.958;9.330;2022-12-07T00:11:33;13.03;;;9.50;;
41259;SDS011;26993;48.958;9.330;2022-12-07T00:14:19;14.00;;;9.07;;
41259;SDS011;26993;48.958;9.330;2022-12-07T00:17:07;13.90;;;8.60;;
41259;SDS011;26993;48.958;9.330;2022-12-07T00:19:53;11.60;;;7.83;;
41259;SDS011;26993;48.958;9.330;2022-12-07T00:22:40;13.07;;;8.80;;
41259;SDS011;26993;48.958;9.330;2022-12-07T00:25:27;12.70;;;8.30;;
41259;SDS011;26993;48.958;9.330;2022-12-07T00:28:15;16.83;;;8.63;;
41259;SDS011;26993;48.958;9.330;2022-12-07T00:31:02;12.83;;;8.50;;
41259;SDS011;26993;48.958;9.330;2022-12-07T00:33:51;14.23;;;8.67;;
41259;SDS011;26993;48.958;9.330;2022-12-07T00:36:37;14.50;;;8.47;;
41259;SDS011;26993;48.958;9.330;2022-12-07T00:39:24;15.43;;;9.20;;
41259;SDS011;26993;48.958;9.330;2022-12-07T00:42:11;14.23;;;9.20;;
41259;SDS011;26993;48.958;9.330;2022-12-07T00:44:59;13.63;;;9.23;;
41259;SDS011;26993;48.958;9.330;2022-12-07T00:47:46;13.57;;;8.73;;
41259;SDS011;26993;48.958;9.330;2022-12-07T00:50:32;14.67;;;9.13;;
41259;SDS011;26993;48.958;9.330;2022-12-07T00:53:19;13.30;;;9.30;;
41259;SDS011;26993;48.958;9.330;2022-12-07T00:56:06;14.80;;;9.43;;
41259;SDS011;26993;48.958;9.330;2022-12-07T00:58:54;14.70;;;9.10;;
41259;SDS011;26993;48.958;9.330;2022-12-07T01:01:43;16.40;;;9.73;;
41259;SDS011;26993;48.958;9.330;2022-12-07T01:04:30;15.50;;;9.20;;
41259;SDS011;26993;48.958;9.330;2022-12-07T01:07:19;14.30;;;8.97;;
41259;SDS011;26993;48.958;9.330;2022-12-07T01:10:06;15.53;;;9.20;;
41259;SDS011;26993;48.958;9.330;2022-12-07T01:12:53;16.20;;;9.63;;
41259;SDS011;26993;48.958;9.330;2022-12-07T01:15:40;15.10;;;8.97;;
41259;SDS011;26993;48.958;9.330;2022-12-07T01:18:29;16.07;;;9.17;;
41259;SDS011;26993;48.958;9.330;2022-12-07T01:21:18;14.80;;;9.30;;
41259;SDS011;26993;48.958;9.330;2022-12-07T01:24:07;17.23;;;9.20;;
41259;SDS011;26993;48.958;9.330;2022-12-07T01:26:56;13.43;;;8.37;;
41259;SDS011;26993;48.958;9.330;2022-12-07T01:29:43;17.80;;;9.27;;
41259;SDS011;26993;48.958;9.330;2022-12-07T01:32:29;15.37;;;8.70;;
41259;SDS011;26993;48.958;9.330;2022-12-07T01:35:18;17.07;;;9.33;;
41259;SDS011;26993;48.958;9.330;2022-12-07T01:38:04;15.23;;;9.13;;
41259;SDS011;26993;48.958;9.330;2022-12-07T01:40:54;16.30;;;9.30;;
41259;SDS011;26993;48.958;9.330;2022-12-07T01:46:57;14.27;;;8.87;;
41259;SDS011;26993;48.958;9.330;2022-12-07T01:49:45;13.93;;;8.27;;
41259;SDS011;26993;48.958;9.330;2022-12-07T01:52:36;15.20;;;8.73;;
41259;SDS011;26993;48.958;9.330;2022-12-07T01:55:25;15.40;;;8.83;;
41259;SDS011;26993;48.958;9.330;2022-12-07T01:58:12;15.73;;;9.10;;
41259;SDS011;26993;48.958;9.330;2022-12-07T02:01:00;16.73;;;9.53;;
41259;SDS011;26993;48.958;9.330;2022-12-07T02:03:47;15.23;;;9.00;;
41259;SDS011;26993;48.958;9.330;2022-12-07T02:06:35;13.13;;;8.33;;
41259;SDS011;26993;48.958;9.330;2022-12-07T02:09:24;17.47;;;9.60;;
41259;SDS011;26993;48.958;9.330;2022-12-07T02:12:10;16.60;;;9.17;;
41259;SDS011;26993;48.958;9.330;2022-12-07T02:14:57;18.47;;;9.37;;
41259;SDS011;26993;48.958;9.330;2022-12-07T02:17:45;14.17;;;9.00;;
41259;SDS011;26993;48.958;9.330;2022-12-07T02:20:39;15.63;;;8.97;;
41259;SDS011;26993;48.958;9.330;2022-12-07T02:23:38;15.60;;;8.87;;
41259;SDS011;26993;48.958;9.330;2022-12-07T02:29:56;16.13;;;8.70;;
41259;SDS011;26993;48.958;9.330;2022-12-07T02:32:48;16.57;;;8.60;;
41259;SDS011;26993;48.958;9.330;2022-12-07T02:35:42;17.70;;;9.20;;
41259;SDS011;26993;48.958;9.330;2022-12-07T02:38:35;15.97;;;8.97;;
41259;SDS011;26993;48.958;9.330;2022-12-07T02:41:26;14.80;;;9.17;;
41259;SDS011;26993;48.958;9.330;2022-12-07T02:44:18;17.17;;;8.93;;
41259;SDS011;26993;48.958;9.330;2022-12-07T02:47:10;15.97;;;8.63;;
41259;SDS011;26993;48.958;9.330;2022-12-07T02:49:59;16.57;;;9.33;;
41259;SDS011;26993;48.958;9.330;2022-12-07T02:52:49;15.80;;;8.93;;
41259;SDS011;26993;48.958;9.330;2022-12-07T02:55:37;15.00;;;9.67;;
41259;SDS011;26993;48.958;9.330;2022-12-07T02:58:30;15.53;;;9.30;;
41259;SDS011;26993;48.958;9.330;2022-12-07T03:01:27;19.50;;;11.10;;
41259;SDS011;26993;48.958;9.330;2022-12-07T03:04:27;19.03;;;10.03;;
41259;SDS011;26993;48.958;9.330;2022-12-07T03:07:25;17.77;;;10.30;;
41259;SDS011;26993;48.958;9.330;2022-12-07T03:10:22;15.63;;;9.60;;
41259;SDS011;26993;48.958;9.330;2022-12-07T03:13:16;16.00;;;9.53;;
41259;SDS011;26993;48.958;9.330;2022-12-07T03:16:10;16.90;;;9.90;;
41259;SDS011;26993;48.958;9.330;2022-12-07T03:19:02;16.73;;;9.90;;
41259;SDS011;26993;48.958;9.330;2022-12-07T03:21:54;15.60;;;9.63;;
41259;SDS011;26993;48.958;9.330;2022-12-07T03:24:45;16.47;;;10.07;;
41259;SDS011;26993;48.958;9.330;2022-12-07T03:27:38;23.17;;;10.10;;
41259;SDS011;26993;48.958;9.330;2022-12-07T03:30:29;20.20;;;11.13;;
41259;SDS011;26993;48.958;9.330;2022-12-07T03:33:19;21.37;;;11.37;;
41259;SDS011;26993;48.958;9.330;2022-12-07T03:36:11;21.57;;;11.70;;
41259;SDS011;26993;48.958;9.330;2022-12-07T03:39:07;18.10;;;10.70;;
41259;SDS011;26993;48.958;9.330;2022-12-07T03:42:03;19.93;;;11.20;;
41259;SDS011;26993;48.958;9.330;2022-12-07T03:44:53;19.40;;;11.33;;
41259;SDS011;26993;48.958;9.330;2022-12-07T03:47:42;20.63;;;11.50;;
41259;SDS011;26993;48.958;9.330;2022-12-07T03:50:35;19.17;;;11.60;;
41259;SDS011;26993;48.958;9.330;2022-12-07T03:53:31;18.00;;;11.63;;
41259;SDS011;26993;48.958;9.330;2022-12-07T03:56:23;22.43;;;12.00;;
41259;SDS011;26993;48.958;9.330;2022-12-07T03:59:12;20.63;;;11.97;;
41259;SDS011;26993;48.958;9.330;2022-12-07T04:02:01;23.23;;;12.70;;
41259;SDS011;26993;48.958;9.330;2022-12-07T04:04:49;20.63;;;11.93;;
41259;SDS011;26993;48.958;9.330;2022-12-07T04:07:36;20.33;;;12.30;;
41259;SDS011;26993;48.958;9.330;2022-12-07T04:10:22;24.37;;;11.97;;
41259;SDS011;26993;48.958;9.330;2022-12-07T04:13:10;22.70;;;12.13;;
41259;SDS011;26993;48.958;9.330;2022-12-07T04:15:57;23.57;;;12.13;;
41259;SDS011;26993;48.958;9.330;2022-12-07T04:18:44;22.43;;;12.37;;
41259;SDS011;26993;48.958;9.330;2022-12-07T04:21:31;23.20;;;12.23;;
41259;SDS011;26993;48.958;9.330;2022-12-07T04:24:18;23.50;;;12.57;;
41259;SDS011;26993;48.958;9.330;2022-12-07T04:27:05;20.37;;;11.83;;
41259;SDS011;26993;48.958;9.330;2022-12-07T04:29:53;18.90;;;11.73;;
41259;SDS011;26993;48.958;9.330;2022-12-07T04:32:40;20.77;;;11.67;;
41259;SDS011;26993;48.958;9.330;2022-12-07T04:35:27;21.17;;;11.00;;
41259;SDS011;26993;48.958;9.330;2022-12-07T04:38:13;18.63;;;10.63;;
41259;SDS011;26993;48.958;9.330;2022-12-07T04:41:04;21.97;;;11.70;;
41259;SDS011;26993;48.958;9.330;2022-12-07T04:43:51;19.47;;;10.97;;
41259;SDS011;26993;48.958;9.330;2022-12-07T04:46:39;17.93;;;10.60;;
41259;SDS011;26993;48.958;9.330;2022-12-07T04:49:26;18.53;;;9.73;;
41259;SDS011;26993;48.958;9.330;2022-12-07T04:52:13;19.97;;;10.70;;
41259;SDS011;26993;48.958;9.330;2022-12-07T04:54:59;18.00;;;11.27;;
41259;SDS011;26993;48.958;9.330;2022-12-07T04:57:46;18.33;;;10.77;;
41259;SDS011;26993;48.958;9.330;2022-12-07T05:00:33;15.93;;;9.40;;
41259;SDS011;26993;48.958;9.330;2022-12-07T05:03:21;16.90;;;9.80;;
41259;SDS011;26993;48.958;9.330;2022-12-07T05:06:07;15.57;;;10.50;;
41259;SDS011;26993;48.958;9.330;2022-12-07T05:08:55;19.03;;;10.90;;
41259;SDS011;26993;48.958;9.330;2022-12-07T05:11:42;17.70;;;10.37;;
41259;SDS011;26993;48.958;9.330;2022-12-07T05:14:28;18.20;;;10.60;;
41259;SDS011;26993;48.958;9.330;2022-12-07T05:17:15;19.33;;;11.00;;
41259;SDS011;26993;48.958;9.330;2022-12-07T05:20:04;19.80;;;10.10;;
41259;SDS011;26993;48.958;9.330;2022-12-07T05:22:51;17.43;;;10.27;;
41259;SDS011;26993;48.958;9.330;2022-12-07T05:25:38;17.73;;;9.67;;
41259;SDS011;26993;48.958;9.330;2022-12-07T05:28:25;17.33;;;9.70;;
41259;SDS011;26993;48.958;9.330;2022-12-07T05:31:12;17.50;;;10.03;;
41259;SDS011;26993;48.958;9.330;2022-12-07T05:33:58;15.53;;;9.87;;
41259;SDS011;26993;48.958;9.330;2022-12-07T05:36:46;16.33;;;9.57;;
41259;SDS011;26993;48.958;9.330;2022-12-07T05:39:34;18.13;;;10.40;;
41259;SDS011;26993;48.958;9.330;2022-12-07T05:42:20;15.37;;;9.10;;
41259;SDS011;26993;48.958;9.330;2022-12-07T05:45:07;15.13;;;9.47;;
41259;SDS011;26993;48.958;9.330;2022-12-07T05:47:55;16.13;;;9.73;;
41259;SDS011;26993;48.958;9.330;2022-12-07T05:50:42;14.33;;;9.10;;
41259;SDS011;26993;48.958;9.330;2022-12-07T05:53:30;14.37;;;8.83;;
41259;SDS011;26993;48.958;9.330;2022-12-07T05:56:16;14.77;;;9.07;;
41259;SDS011;26993;48.958;9.330;2022-12-07T05:59:03;15.07;;;9.80;;
41259;SDS011;26993;48.958;9.330;2022-12-07T06:02:08;16.87;;;9.57;;
41259;SDS011;26993;48.958;9.330;2022-12-07T06:04:56;18.77;;;9.77;;
41259;SDS011;26993;48.958;9.330;2022-12-07T06:07:43;29.47;;;10.43;;
41259;SDS011;26993;48.958;9.330;2022-12-07T06:10:31;20.70;;;10.27;;
41259;SDS011;26993;48.958;9.330;2022-12-07T06:13:17;24.93;;;10.57;;
41259;SDS011;26993;48.958;9.330;2022-12-07T06:16:05;15.57;;;9.43;;
41259;SDS011;26993;48.958;9.330;2022-12-07T06:18:52;15.47;;;10.00;;
41259;SDS011;26993;48.958;9.330;2022-12-07T06:21:39;19.53;;;10.67;;
41259;SDS011;26993;48.958;9.330;2022-12-07T06:24:25;25.13;;;11.90;;
41259;SDS011;26993;48.958;9.330;2022-12-07T06:27:14;19.60;;;10.77;;
41259;SDS011;26993;48.958;9.330;2022-12-07T06:30:01;20.90;;;11.10;;
41259;SDS011;26993;48.958;9.330;2022-12-07T06:32:51;21.73;;;11.40;;
41259;SDS011;26993;48.958;9.330;2022-12-07T06:35:38;21.07;;;11.90;;
41259;SDS011;26993;48.958;9.330;2022-12-07T06:38:24;21.23;;;12.50;;
41259;SDS011;26993;48.958;9.330;2022-12-07T06:41:11;19.30;;;11.37;;
41259;SDS011;26993;48.958;9.330;2022-12-07T06:43:59;18.90;;;10.17;;
41259;SDS011;26993;48.958;9.330;2022-12-07T06:46:46;20.43;;;10.90;;
41259;SDS011;26993;48.958;9.330;2022-12-07T06:49:33;17.33;;;9.70;;
41259;SDS011;26993;48.958;9.330;2022-12-07T06:52:19;16.03;;;9.83;;
41259;SDS011;26993;48.958;9.330;2022-12-07T06:55:06;16.83;;;9.77;;
41259;SDS011;26993;48.958;9.330;2022-12-07T06:57:53;18.00;;;9.77;;
41259;SDS011;26993;48.958;9.330;2022-12-07T07:00:42;20.37;;;9.50;;
41259;SDS011;26993;48.958;9.330;2022-12-07T07:03:29;17.40;;;9.87;;
41259;SDS011;26993;48.958;9.330;2022-12-07T07:06:16;19.30;;;10.13;;
41259;SDS011;26993;48.958;9.330;2022-12-07T07:09:02;19.53;;;9.97;;
41259;SDS011;26993;48.958;9.330;2022-12-07T07:11:49;25.73;;;10.57;;
41259;SDS011;26993;48.958;9.330;2022-12-07T07:14:36;18.27;;;10.40;;
41259;SDS011;26993;48.958;9.330;2022-12-07T07:17:24;17.40;;;10.47;;
41259;SDS011;26993;48.958;9.330;2022-12-07T07:20:11;20.53;;;10.13;;
41259;SDS011;26993;48.958;9.330;2022-12-07T07:22:58;21.47;;;10.23;;
41259;SDS011;26993;48.958;9.330;2022-12-07T07:25:45;22.10;;;10.03;;
41259;SDS011;26993;48.958;9.330;2022-12-07T07:28:32;20.07;;;10.47;;
41259;SDS011;26993;48.958;9.330;2022-12-07T07:31:19;23.73;;;10.23;;
41259;SDS011;26993;48.958;9.330;2022-12-07T07:34:07;18.13;;;10.63;;
41259;SDS011;26993;48.958;9.330;2022-12-07T07:36:53;22.63;;;11.27;;
41259;SDS011;26993;48.958;9.330;2022-12-07T07:39:40;22.27;;;10.97;;
41259;SDS011;26993;48.958;9.330;2022-12-07T07:42:27;20.80;;;10.83;;
41259;SDS011;26993;48.958;9.330;2022-12-07T07:45:13;18.43;;;10.53;;
41259;SDS011;26993;48.958;9.330;2022-12-07T07:48:00;17.13;;;9.77;;
41259;SDS011;26993;48.958;9.330;2022-12-07T07:50:48;17.90;;;9.93;;
41259;SDS011;26993;48.958;9.330;2022-12-07T07:53:35;16.90;;;10.17;;
41259;SDS011;26993;48.958;9.330;2022-12-07T07:56:22;22.30;;;10.57;;
41259;SDS011;26993;48.958;9.330;2022-12-07T07:59:08;20.70;;;11.17;;
41259;SDS011;26993;48.958;9.330;2022-12-07T08:01:55;20.33;;;10.73;;
41259;SDS011;26993;48.958;9.330;2022-12-07T08:04:42;23.60;;;11.50;;
41259;SDS011;26993;48.958;9.330;2022-12-07T08:07:30;19.67;;;10.80;;
41259;SDS011;26993;48.958;9.330;2022-12-07T08:10:17;22.30;;;12.23;;
41259;SDS011;26993;48.958;9.330;2022-12-07T08:13:03;19.13;;;11.13;;
41259;SDS011;26993;48.958;9.330;2022-12-07T08:16:02;19.57;;;10.63;;
41259;SDS011;26993;48.958;9.330;2022-12-07T08:18:50;20.33;;;10.27;;
41259;SDS011;26993;48.958;9.330;2022-12-07T08:21:37;16.30;;;9.70;;
41259;SDS011;26993;48.958;9.330;2022-12-07T08:24:25;16.40;;;9.97;;
41259;SDS011;26993;48.958;9.330;2022-12-07T08:27:12;16.93;;;9.83;;
41259;SDS011;26993;48.958;9.330;2022-12-07T08:29:58;17.37;;;10.20;;
41259;SDS011;26993;48.958;9.330;2022-12-07T08:32:45;14.83;;;8.37;;
41259;SDS011;26993;48.958;9.330;2022-12-07T08:35:33;19.93;;;10.10;;
41259;SDS011;26993;48.958;9.330;2022-12-07T08:38:20;18.17;;;9.77;;
41259;SDS011;26993;48.958;9.330;2022-12-07T08:41:08;18.57;;;9.40;;
41259;SDS011;26993;48.958;9.330;2022-12-07T08:43:55;13.43;;;8.17;;
41259;SDS011;26993;48.958;9.330;2022-12-07T08:46:42;16.03;;;9.17;;
41259;SDS011;26993;48.958;9.330;2022-12-07T08:49:34;16.27;;;9.30;;
41259;SDS011;26993;48.958;9.330;2022-12-07T08:52:25;14.90;;;8.70;;
41259;SDS011;26993;48.958;9.330;2022-12-07T08:55:12;15.80;;;8.60;;
41259;SDS011;26993;48.958;9.330;2022-12-07T08:58:00;17.30;;;8.90;;
41259;SDS011;26993;48.958;9.330;2022-12-07T09:00:48;15.60;;;8.60;;
41259;SDS011;26993;48.958;9.330;2022-12-07T09:03:35;16.00;;;8.40;;
41259;SDS011;26993;48.958;9.330;2022-12-07T09:06:22;15.93;;;9.00;;
41259;SDS011;26993;48.958;9.330;2022-12-07T09:09:09;14.60;;;8.70;;
41259;SDS011;26993;48.958;9.330;2022-12-07T09:11:58;20.07;;;9.40;;
41259;SDS011;26993;48.958;9.330;2022-12-07T09:14:46;15.47;;;8.20;;
41259;SDS011;26993;48.958;9.330;2022-12-07T09:17:32;16.93;;;9.17;;
41259;SDS011;26993;48.958;9.330;2022-12-07T09:20:20;16.70;;;9.23;;
41259;SDS011;26993;48.958;9.330;2022-12-07T09:23:07;15.00;;;8.80;;
41259;SDS011;26993;48.958;9.330;2022-12-07T09:25:53;17.10;;;9.23;;
41259;SDS011;26993;48.958;9.330;2022-12-07T09:28:40;16.83;;;9.53;;
41259;SDS011;26993;48.958;9.330;2022-12-07T09:31:28;18.40;;;9.80;;
41259;SDS011;26993;48.958;9.330;2022-12-07T09:34:15;18.63;;;9.30;;
41259;SDS011;26993;48.958;9.330;2022-12-07T09:37:01;19.03;;;9.00;;
41259;SDS011;26993;48.958;9.330;2022-12-07T09:39:49;15.77;;;9.50;;
41259;SDS011;26993;48.958;9.330;2022-12-07T09:42:36;18.43;;;10.20;;
41259;SDS011;26993;48.958;9.330;2022-12-07T09:45:26;15.90;;;9.63;;
41259;SDS011;26993;48.958;9.330;2022-12-07T09:48:20;17.13;;;10.27;;
41259;SDS011;26993;48.958;9.330;2022-12-07T09:51:13;15.63;;;9.60;;
41259;SDS011;26993;48.958;9.330;2022-12-07T09:54:02;16.30;;;8.93;;
41259;SDS011;26993;48.958;9.330;2022-12-07T09:56:49;15.00;;;8.23;;
41259;SDS011;26993;48.958;9.330;2022-12-07T09:59:35;14.90;;;7.43;;
41259;SDS011;26993;48.958;9.330;2022-12-07T10:02:24;13.87;;;7.07;;
41259;SDS011;26993;48.958;9.330;2022-12-07T10:05:22;13.13;;;8.23;;
41259;SDS011;26993;48.958;9.330;2022-12-07T10:08:13;17.37;;;8.30;;
41259;SDS011;26993;48.958;9.330;2022-12-07T10:11:01;16.60;;;8.53;;
41259;SDS011;26993;48.958;9.330;2022-12-07T10:13:49;13.17;;;7.47;;
41259;SDS011;26993;48.958;9.330;2022-12-07T10:16:39;11.43;;;6.97;;
41259;SDS011;26993;48.958;9.330;2022-12-07T10:19:28;11.73;;;6.87;;
41259;SDS011;26993;48.958;9.330;2022-12-07T10:22:17;12.67;;;7.13;;
41259;SDS011;26993;48.958;9.330;2022-12-07T10:25:08;14.47;;;7.40;;
41259;SDS011;26993;48.958;9.330;2022-12-07T10:28:15;15.17;;;7.57;;
41259;SDS011;26993;48.958;9.330;2022-12-07T10:31:14;15.03;;;7.83;;
41259;SDS011;26993;48.958;9.330;2022-12-07T10:34:03;11.53;;;6.73;;
41259;SDS011;26993;48.958;9.330;2022-12-07T10:36:50;11.57;;;5.90;;
41259;SDS011;26993;48.958;9.330;2022-12-07T10:39:42;12.53;;;6.20;;
41259;SDS011;26993;48.958;9.330;2022-12-07T10:42:30;10.93;;;5.57;;
41259;SDS011;26993;48.958;9.330;2022-12-07T10:45:17;9.23;;;5.20;;
41259;SDS011;26993;48.958;9.330;2022-12-07T10:48:05;7.23;;;4.40;;
41259;SDS011;26993;48.958;9.330;2022-12-07T10:51:00;10.03;;;4.93;;
41259;SDS011;26993;48.958;9.330;2022-12-07T10:53:58;9.20;;;5.27;;
41259;SDS011;26993;48.958;9.330;2022-12-07T10:57:03;9.60;;;5.70;;
41259;SDS011;26993;48.958;9.330;2022-12-07T11:00:09;8.60;;;4.80;;
41259;SDS011;26993;48.958;9.330;2022-12-07T11:03:05;12.50;;;5.80;;
41259;SDS011;26993;48.958;9.330;2022-12-07T11:06:08;10.03;;;5.53;;
41259;SDS011;26993;48.958;9.330;2022-12-07T11:09:04;9.27;;;5.70;;
41259;SDS011;26993;48.958;9.330;2022-12-07T11:12:10;10.70;;;5.40;;
41259;SDS011;26993;48.958;9.330;2022-12-07T11:15:04;10.40;;;6.07;;
41259;SDS011;26993;48.958;9.330;2022-12-07T11:18:03;9.57;;;5.47;;
41259;SDS011;26993;48.958;9.330;2022-12-07T11:20:55;11.13;;;5.97;;
41259;SDS011;26993;48.958;9.330;2022-12-07T11:23:54;11.27;;;6.57;;
41259;SDS011;26993;48.958;9.330;2022-12-07T11:26:52;11.27;;;5.77;;
41259;SDS011;26993;48.958;9.330;2022-12-07T11:29:51;10.73;;;6.00;;
41259;SDS011;26993;48.958;9.330;2022-12-07T11:32:53;14.47;;;5.53;;
41259;SDS011;26993;48.958;9.330;2022-12-07T11:35:52;11.93;;;5.90;;
41259;SDS011;26993;48.958;9.330;2022-12-07T11:38:47;11.53;;;6.83;;
41259;SDS011;26993;48.958;9.330;2022-12-07T11:41:39;12.13;;;7.37;;
41259;SDS011;26993;48.958;9.330;2022-12-07T11:44:30;12.37;;;6.80;;
41259;SDS011;26993;48.958;9.330;2022-12-07T11:47:25;9.53;;;6.30;;
41259;SDS011;26993;48.958;9.330;2022-12-07T11:50:21;14.30;;;7.67;;
41259;SDS011;26993;48.958;9.330;2022-12-07T11:53:14;13.27;;;7.77;;
41259;SDS011;26993;48.958;9.330;2022-12-07T11:56:07;14.27;;;7.40;;
41259;SDS011;26993;48.958;9.330;2022-12-07T11:58:57;12.23;;;7.40;;
41259;SDS011;26993;48.958;9.330;2022-12-07T12:01:53;10.73;;;6.57;;
41259;SDS011;26993;48.958;9.330;2022-12-07T12:04:47;13.87;;;7.23;;
41259;SDS011;26993;48.958;9.330;2022-12-07T12:07:39;12.47;;;7.77;;
41259;SDS011;26993;48.958;9.330;2022-12-07T12:10:30;14.40;;;8.00;;
41259;SDS011;26993;48.958;9.330;2022-12-07T12:13:32;14.10;;;8.53;;
41259;SDS011;26993;48.958;9.330;2022-12-07T12:20:00;12.97;;;8.13;;
41259;SDS011;26993;48.958;9.330;2022-12-07T12:22:52;16.73;;;8.23;;
41259;SDS011;26993;48.958;9.330;2022-12-07T12:25:42;15.87;;;9.00;;
41259;SDS011;26993;48.958;9.330;2022-12-07T12:28:32;13.77;;;8.13;;
41259;SDS011;26993;48.958;9.330;2022-12-07T12:31:31;17.03;;;10.17;;
41259;SDS011;26993;48.958;9.330;2022-12-07T12:34:31;18.40;;;9.73;;
41259;SDS011;26993;48.958;9.330;2022-12-07T12:40:40;14.93;;;8.97;;
41259;SDS011;26993;48.958;9.330;2022-12-07T12:43:47;15.63;;;9.10;;
41259;SDS011;26993;48.958;9.330;2022-12-07T12:50:10;15.97;;;8.90;;
41259;SDS011;26993;48.958;9.330;2022-12-07T12:53:13;15.30;;;9.20;;
41259;SDS011;26993;48.958;9.330;2022-12-07T12:56:16;17.30;;;9.10;;
41259;SDS011;26993;48.958;9.330;2022-12-07T12:59:26;16.77;;;9.20;;
41259;SDS011;26993;48.958;9.330;2022-12-07T13:02:16;15.80;;;9.43;;
41259;SDS011;26993;48.958;9.330;2022-12-07T13:05:16;15.70;;;8.83;;
41259;SDS011;26993;48.958;9.330;2022-12-07T13:08:05;20.40;;;10.57;;
41259;SDS011;26993;48.958;9.330;2022-12-07T13:11:15;17.73;;;10.37;;
41259;SDS011;26993;48.958;9.330;2022-12-07T13:18:01;18.57;;;10.27;;
41259;SDS011;26993;48.958;9.330;2022-12-07T13:20:50;18.50;;;9.43;;
41259;SDS011;26993;48.958;9.330;2022-12-07T13:23:51;17.40;;;9.40;;
41259;SDS011;26993;48.958;9.330;2022-12-07T13:26:44;17.80;;;10.00;;
41259;SDS011;26993;48.958;9.330;2022-12-07T13:29:35;18.40;;;9.83;;
41259;SDS011;26993;48.958;9.330;2022-12-07T13:32:23;16.83;;;9.30;;
41259;SDS011;26993;48.958;9.330;2022-12-07T13:35:27;18.20;;;9.17;;
41259;SDS011;26993;48.958;9.330;2022-12-07T13:38:22;18.07;;;9.83;;
41259;SDS011;26993;48.958;9.330;2022-12-07T13:41:14;17.53;;;10.33;;
41259;SDS011;26993;48.958;9.330;2022-12-07T13:44:03;17.97;;;9.03;;
41259;SDS011;26993;48.958;9.330;2022-12-07T13:46:57;16.27;;;8.97;;
41259;SDS011;26993;48.958;9.330;2022-12-07T13:49:51;15.23;;;8.80;;
41259;SDS011;26993;48.958;9.330;2022-12-07T13:52:43;16.50;;;9.63;;
41259;SDS011;26993;48.958;9.330;2022-12-07T13:55:31;19.97;;;9.93;;
41259;SDS011;26993;48.958;9.330;2022-12-07T13:58:20;14.60;;;9.13;;
41259;SDS011;26993;48.958;9.330;2022-12-07T14:01:07;15.63;;;9.10;;
41259;SDS011;26993;48.958;9.330;2022-12-07T14:03:54;16.17;;;9.63;;
41259;SDS011;26993;48.958;9.330;2022-12-07T14:06:46;18.33;;;9.67;;
41259;SDS011;26993;48.958;9.330;2022-12-07T14:09:34;17.37;;;9.60;;
41259;SDS011;26993;48.958;9.330;2022-12-07T14:12:21;17.83;;;9.27;;
41259;SDS011;26993;48.958;9.330;2022-12-07T14:15:19;20.30;;;9.57;;
41259;SDS011;26993;48.958;9.330;2022-12-07T14:21:14;18.70;;;9.57;;
41259;SDS011;26993;48.958;9.330;2022-12-07T14:24:08;16.13;;;9.30;;
41259;SDS011;26993;48.958;9.330;2022-12-07T14:26:57;16.60;;;9.27;;
41259;SDS011;26993;48.958;9.330;2022-12-07T14:29:43;17.97;;;10.37;;
41259;SDS011;26993;48.958;9.330;2022-12-07T14:32:32;18.17;;;11.17;;
41259;SDS011;26993;48.958;9.330;2022-12-07T14:35:24;18.17;;;10.17;;
41259;SDS011;26993;48.958;9.330;2022-12-07T14:38:10;17.03;;;9.67;;
41259;SDS011;26993;48.958;9.330;2022-12-07T14:40:57;17.00;;;9.50;;
41259;SDS011;26993;48.958;9.330;2022-12-07T14:44:07;22.03;;;9.87;;
41259;SDS011;26993;48.958;9.330;2022-12-07T14:46:55;22.37;;;11.33;;
41259;SDS011;26993;48.958;9.330;2022-12-07T14:49:43;24.53;;;11.93;;
41259;SDS011;26993;48.958;9.330;2022-12-07T14:52:30;23.50;;;11.53;;
41259;SDS011;26993;48.958;9.330;2022-12-07T14:55:19;20.80;;;11.33;;
41259;SDS011;26993;48.958;9.330;2022-12-07T14:58:11;19.60;;;11.13;;
41259;SDS011;26993;48.958;9.330;2022-12-07T15:01:00;19.60;;;11.70;;
41259;SDS011;26993;48.958;9.330;2022-12-07T15:03:46;21.50;;;11.37;;
41259;SDS011;26993;48.958;9.330;2022-12-07T15:06:34;19.60;;;10.90;;
41259;SDS011;26993;48.958;9.330;2022-12-07T15:09:21;17.57;;;10.63;;
41259;SDS011;26993;48.958;9.330;2022-12-07T15:12:08;18.53;;;10.07;;
41259;SDS011;26993;48.958;9.330;2022-12-07T15:14:54;16.33;;;9.70;;
41259;SDS011;26993;48.958;9.330;2022-12-07T15:17:41;18.27;;;10.10;;
41259;SDS011;26993;48.958;9.330;2022-12-07T15:20:28;19.87;;;10.30;;
41259;SDS011;26993;48.958;9.330;2022-12-07T15:23:16;20.97;;;11.13;;
41259;SDS011;26993;48.958;9.330;2022-12-07T15:26:02;18.80;;;10.20;;
41259;SDS011;26993;48.958;9.330;2022-12-07T15:28:49;18.80;;;11.27;;
41259;SDS011;26993;48.958;9.330;2022-12-07T15:31:36;19.47;;;11.47;;
41259;SDS011;26993;48.958;9.330;2022-12-07T15:34:23;18.77;;;11.67;;
41259;SDS011;26993;48.958;9.330;2022-12-07T15:37:10;22.40;;;12.17;;
41259;SDS011;26993;48.958;9.330;2022-12-07T15:39:58;22.73;;;12.57;;
41259;SDS011;26993;48.958;9.330;2022-12-07T15:42:44;21.73;;;12.43;;
41259;SDS011;26993;48.958;9.330;2022-12-07T15:45:31;26.63;;;13.10;;
41259;SDS011;26993;48.958;9.330;2022-12-07T15:48:17;25.50;;;12.83;;
41259;SDS011;26993;48.958;9.330;2022-12-07T15:51:03;25.23;;;13.73;;
41259;SDS011;26993;48.958;9.330;2022-12-07T15:53:50;26.03;;;14.17;;
41259;SDS011;26993;48.958;9.330;2022-12-07T15:56:39;27.23;;;13.50;;
41259;SDS011;26993;48.958;9.330;2022-12-07T15:59:26;25.67;;;13.37;;
41259;SDS011;26993;48.958;9.330;2022-12-07T16:02:14;31.30;;;14.77;;
41259;SDS011;26993;48.958;9.330;2022-12-07T16:05:00;26.60;;;14.63;;
41259;SDS011;26993;48.958;9.330;2022-12-07T16:07:47;30.70;;;17.00;;
41259;SDS011;26993;48.958;9.330;2022-12-07T16:10:34;31.83;;;15.47;;
41259;SDS011;26993;48.958;9.330;2022-12-07T16:13:22;28.17;;;14.93;;
41259;SDS011;26993;48.958;9.330;2022-12-07T16:16:10;30.67;;;15.97;;
41259;SDS011;26993;48.958;9.330;2022-12-07T16:18:59;30.43;;;16.03;;
41259;SDS011;26993;48.958;9.330;2022-12-07T16:21:45;30.10;;;15.77;;
41259;SDS011;26993;48.958;9.330;2022-12-07T16:24:32;30.90;;;17.30;;
41259;SDS011;26993;48.958;9.330;2022-12-07T16:27:19;32.20;;;16.37;;
41259;SDS011;26993;48.958;9.330;2022-12-07T16:30:08;30.47;;;16.23;;
41259;SDS011;26993;48.958;9.330;2022-12-07T16:32:55;33.00;;;16.53;;
41259;SDS011;26993;48.958;9.330;2022-12-07T16:35:42;31.53;;;16.23;;
41259;SDS011;26993;48.958;9.330;2022-12-07T16:38:29;33.83;;;16.83;;
41259;SDS011;26993;48.958;9.330;2022-12-07T16:41:15;29.90;;;16.50;;
41259;SDS011;26993;48.958;9.330;2022-12-07T16:44:03;32.23;;;16.83;;
41259;SDS011;26993;48.958;9.330;2022-12-07T16:46:53;31.30;;;16.17;;
41259;SDS011;26993;48.958;9.330;2022-12-07T16:49:40;34.50;;;17.67;;
41259;SDS011;26993;48.958;9.330;2022-12-07T16:52:26;30.83;;;15.57;;
41259;SDS011;26993;48.958;9.330;2022-12-07T16:55:13;25.47;;;14.40;;
41259;SDS011;26993;48.958;9.330;2022-12-07T16:58:00;25.27;;;14.20;;
41259;SDS011;26993;48.958;9.330;2022-12-07T17:00:47;26.27;;;14.07;;
41259;SDS011;26993;48.958;9.330;2022-12-07T17:03:35;27.93;;;15.73;;